Time;durP1;ratioP1;P1;durP2;ratioP2;P2;SDS_P1;SDS_P2;PMS_P1;PMS_P2;Temp;Humidity;BMP_temperature;BMP_pressure;BME280_temperature;BME280_humidity;BME280_pressure;Samples;Min_cycle;Max_cycle;Signal;HPM_P1;HPM_P2
2021/03/09 00:00:22;;;;;;;18.48;11.15;;;;;;;;;;5057834;28;20218;-63
2021/03/09 00:02:51;;;;;;;17.17;11.35;;;;;;;;;;5076817;28;20287;-63
2021/03/09 00:05:18;;;;;;;19.30;10.98;;;;;;;;;;5076217;28;20187;-64
2021/03/09 00:07:44;;;;;;;16.42;11.35;;;;;;;;;;5076130;28;20184;-64
2021/03/09 00:10:13;;;;;;;17.05;10.75;;;;;;;;;;5058794;28;20211;-64
2021/03/09 00:12:40;;;;;;;16.45;11.20;;;;;;;;;;5076174;28;20203;-65
2021/03/09 00:15:07;;;;;;;20.08;11.38;;;;;;;;;;5076037;28;20192;-64
2021/03/09 00:17:34;;;;;;;18.13;10.82;;;;;;;;;;5075704;28;20224;-63
2021/03/09 00:20:01;;;;;;;18.40;10.27;;;;;;;;;;5076413;28;20207;-66
2021/03/09 00:22:32;;;;;;;17.98;9.60;;;;;;;;;;5075921;28;20180;-64
2021/03/09 00:24:59;;;;;;;15.63;10.25;;;;;;;;;;5074739;28;20200;-64
2021/03/09 00:27:25;;;;;;;23.08;13.20;;;;;;;;;;5058346;28;20270;-64
2021/03/09 00:29:54;;;;;;;16.70;10.55;;;;;;;;;;5075436;28;20278;-64
2021/03/09 00:32:21;;;;;;;16.25;10.32;;;;;;;;;;5075545;28;20545;-65
2021/03/09 00:34:48;;;;;;;16.02;10.10;;;;;;;;;;5075761;28;20198;-64
2021/03/09 00:37:15;;;;;;;16.00;11.18;;;;;;;;;;5075691;28;20195;-64
2021/03/09 00:39:41;;;;;;;15.75;10.43;;;;;;;;;;5075485;28;20208;-64
2021/03/09 00:42:13;;;;;;;19.33;11.45;;;;;;;;;;5075384;28;20184;-64
2021/03/09 00:44:43;;;;;;;14.48;10.80;;;;;;;;;;5057969;28;20195;-65
2021/03/09 00:47:10;;;;;;;18.52;10.75;;;;;;;;;;5057825;28;20188;-63
2021/03/09 00:49:37;;;;;;;18.90;10.45;;;;;;;;;;5075115;28;20228;-63
2021/03/09 00:52:04;;;;;;;18.55;12.18;;;;;;;;;;5057578;28;20194;-63
2021/03/09 00:54:31;;;;;;;17.05;10.82;;;;;;;;;;5075159;28;20188;-63
2021/03/09 00:56:57;;;;;;;21.17;11.20;;;;;;;;;;5074999;28;20194;-63
2021/03/09 00:59:24;;;;;;;21.17;10.75;;;;;;;;;;5075064;28;20282;-63
2021/03/09 01:01:51;;;;;;;20.60;11.75;;;;;;;;;;5075204;28;20191;-64
2021/03/09 01:04:17;;;;;;;24.70;13.02;;;;;;;;;;5057202;28;20227;-64
2021/03/09 01:06:45;;;;;;;19.90;12.75;;;;;;;;;;5074928;28;20275;-64
2021/03/09 01:09:12;;;;;;;19.88;12.15;;;;;;;;;;5074908;28;20573;-64
2021/03/09 01:11:38;;;;;;;17.13;11.63;;;;;;;;;;5075264;28;20184;-64
2021/03/09 01:14:05;;;;;;;26.42;12.93;;;;;;;;;;5057004;28;20655;-63
2021/03/09 01:16:33;;;;;;;19.67;12.02;;;;;;;;;;5074568;28;20569;-64
2021/03/09 01:19:00;;;;;;;25.00;13.07;;;;;;;;;;5074879;28;20192;-64
2021/03/09 01:21:27;;;;;;;20.10;12.93;;;;;;;;;;5074693;28;20195;-64
2021/03/09 01:23:53;;;;;;;22.02;11.90;;;;;;;;;;5074483;28;20200;-64
2021/03/09 01:26:20;;;;;;;29.45;13.50;;;;;;;;;;5074554;28;20282;-65
2021/03/09 01:28:47;;;;;;;19.35;12.60;;;;;;;;;;5074262;28;20560;-64
2021/03/09 01:31:13;;;;;;;24.58;13.13;;;;;;;;;;5074646;28;20211;-64
2021/03/09 01:33:42;;;;;;;21.55;12.27;;;;;;;;;;5057093;28;20214;-64
2021/03/09 01:36:10;;;;;;;26.70;12.30;;;;;;;;;;5074078;28;20200;-64
2021/03/09 01:38:42;;;;;;;19.15;12.75;;;;;;;;;;5074259;28;20196;-64
2021/03/09 01:41:09;;;;;;;20.10;12.77;;;;;;;;;;5040097;28;20203;-64
2021/03/09 01:43:36;;;;;;;19.83;12.60;;;;;;;;;;5074148;28;20208;-64
2021/03/09 01:46:04;;;;;;;27.92;14.75;;;;;;;;;;5074440;28;20188;-64
2021/03/09 01:48:34;;;;;;;30.55;14.52;;;;;;;;;;5056330;28;20204;-64
2021/03/09 01:51:02;;;;;;;24.30;14.68;;;;;;;;;;5056290;28;20224;-64
2021/03/09 01:53:30;;;;;;;22.77;12.38;;;;;;;;;;5039967;28;20218;-64
2021/03/09 01:56:00;;;;;;;26.30;14.15;;;;;;;;;;5056344;28;20192;-64
2021/03/09 01:58:26;;;;;;;22.70;13.85;;;;;;;;;;5074102;28;20200;-64
2021/03/09 02:00:53;;;;;;;22.92;13.75;;;;;;;;;;5073881;28;20274;-64
2021/03/09 02:03:22;;;;;;;21.05;12.50;;;;;;;;;;5056594;28;20241;-64
2021/03/09 02:05:50;;;;;;;29.65;14.55;;;;;;;;;;5073928;28;20196;-64
2021/03/09 02:08:17;;;;;;;22.17;13.93;;;;;;;;;;5055867;28;20211;-64
2021/03/09 02:10:47;;;;;;;18.33;12.38;;;;;;;;;;5073705;28;20674;-62
2021/03/09 02:13:19;;;;;;;26.08;14.65;;;;;;;;;;5056074;28;20249;-64
2021/03/09 02:15:45;;;;;;;24.73;13.23;;;;;;;;;;5055910;28;20236;-65
2021/03/09 02:18:21;;;;;;;25.27;14.63;;;;;;;;;;5073791;28;20173;-64
2021/03/09 02:20:52;;;;;;;27.60;14.80;;;;;;;;;;5073758;28;20179;-64
2021/03/09 02:23:40;;;;;;;21.55;14.25;;;;;;;;;;5073614;28;20188;-64
2021/03/09 02:26:10;;;;;;;23.58;12.77;;;;;;;;;;5073756;28;20184;-64
2021/03/09 02:28:48;;;;;;;24.42;14.73;;;;;;;;;;5073544;28;20192;-64
2021/03/09 02:31:16;;;;;;;23.30;14.13;;;;;;;;;;5073913;28;20776;-64
2021/03/09 02:33:57;;;;;;;21.67;13.73;;;;;;;;;;5073830;28;20168;-64
2021/03/09 02:36:28;;;;;;;24.45;15.25;;;;;;;;;;5073600;28;20184;-63
2021/03/09 02:39:04;;;;;;;27.35;14.90;;;;;;;;;;5073860;28;20188;-63
2021/03/09 02:41:31;;;;;;;22.88;14.30;;;;;;;;;;5073987;28;20184;-63
2021/03/09 02:43:59;;;;;;;24.17;13.75;;;;;;;;;;5074142;28;20635;-64
2021/03/09 02:46:27;;;;;;;38.63;15.48;;;;;;;;;;5073542;28;20188;-64
2021/03/09 02:48:55;;;;;;;28.95;16.83;;;;;;;;;;5075984;28;20207;-64
2021/03/09 02:51:26;;;;;;;26.42;16.05;;;;;;;;;;5059943;28;20211;-64
2021/03/09 02:53:53;;;;;;;23.73;15.13;;;;;;;;;;5077675;28;20191;-64
2021/03/09 02:56:21;;;;;;;25.98;16.35;;;;;;;;;;5077770;28;20211;-64
2021/03/09 02:58:49;;;;;;;25.50;15.30;;;;;;;;;;5077285;28;20188;-64
2021/03/09 03:01:19;;;;;;;24.65;15.00;;;;;;;;;;5077649;28;20611;-64
2021/03/09 03:03:49;;;;;;;25.58;14.70;;;;;;;;;;5077174;28;20196;-64
2021/03/09 03:06:17;;;;;;;28.23;14.77;;;;;;;;;;5059918;28;20250;-64
2021/03/09 03:08:45;;;;;;;28.40;15.10;;;;;;;;;;5077196;28;20184;-64
2021/03/09 03:11:14;;;;;;;27.33;14.70;;;;;;;;;;5076969;28;20218;-64
2021/03/09 03:13:41;;;;;;;27.90;15.18;;;;;;;;;;5077034;28;20210;-64
2021/03/09 03:16:09;;;;;;;28.05;14.93;;;;;;;;;;5076702;28;20222;-64
2021/03/09 03:18:42;;;;;;;30.15;16.52;;;;;;;;;;5059649;28;20207;-64
2021/03/09 03:21:13;;;;;;;29.70;15.85;;;;;;;;;;5059755;28;20202;-64
2021/03/09 03:23:40;;;;;;;31.13;16.10;;;;;;;;;;5077001;28;20218;-64
2021/03/09 03:26:08;;;;;;;28.40;15.43;;;;;;;;;;5042704;28;20204;-64
2021/03/09 03:28:35;;;;;;;27.40;15.85;;;;;;;;;;5076375;28;20196;-64
2021/03/09 03:31:03;;;;;;;35.17;17.33;;;;;;;;;;5076510;28;20248;-64
2021/03/09 03:33:30;;;;;;;28.67;17.30;;;;;;;;;;5077132;28;20184;-64
2021/03/09 03:36:03;;;;;;;26.23;14.65;;;;;;;;;;5076633;28;20528;-64
2021/03/09 03:38:39;;;;;;;28.77;16.50;;;;;;;;;;5077257;28;20549;-64
2021/03/09 03:41:07;;;;;;;32.88;17.92;;;;;;;;;;5076571;28;20654;-64
2021/03/09 03:43:34;;;;;;;29.55;17.75;;;;;;;;;;5076603;28;20196;-63
2021/03/09 03:46:00;;;;;;;29.20;16.02;;;;;;;;;;5076587;28;20203;-64
2021/03/09 03:55:18;;;;;;;30.45;14.95;;;;;;;;;;5076590;28;20591;-64
2021/03/09 03:57:47;;;;;;;27.05;17.15;;;;;;;;;;5076515;28;20207;-64
2021/03/09 04:00:17;;;;;;;25.67;14.77;;;;;;;;;;5076538;28;20192;-61
2021/03/09 04:02:46;;;;;;;26.80;15.00;;;;;;;;;;5076062;28;20207;-61
2021/03/09 04:05:16;;;;;;;26.52;15.70;;;;;;;;;;5076379;28;20196;-63
2021/03/09 04:07:42;;;;;;;29.27;15.57;;;;;;;;;;5076385;28;20195;-64
2021/03/09 04:10:12;;;;;;;29.55;17.60;;;;;;;;;;5058222;28;20227;-64
2021/03/09 04:12:38;;;;;;;30.58;15.45;;;;;;;;;;5076027;28;20223;-64
2021/03/09 04:15:07;;;;;;;26.85;15.95;;;;;;;;;;5076241;28;20184;-63
2021/03/09 04:17:34;;;;;;;36.08;16.38;;;;;;;;;;5076130;28;20695;-64
2021/03/09 04:20:02;;;;;;;24.85;14.90;;;;;;;;;;5076022;28;20650;-63
2021/03/09 04:22:32;;;;;;;29.92;17.67;;;;;;;;;;5075996;28;20173;-66
2021/03/09 04:24:59;;;;;;;29.30;16.75;;;;;;;;;;5075952;28;20598;-64
2021/03/09 04:27:26;;;;;;;26.55;15.68;;;;;;;;;;5075503;28;20187;-64
2021/03/09 04:29:54;;;;;;;37.58;16.95;;;;;;;;;;5075691;28;20212;-64
2021/03/09 04:32:23;;;;;;;29.13;16.30;;;;;;;;;;5075702;28;20192;-64
2021/03/09 04:34:54;;;;;;;33.58;16.58;;;;;;;;;;5076295;28;20177;-64
2021/03/09 04:37:21;;;;;;;32.28;16.85;;;;;;;;;;5075528;28;20198;-64
2021/03/09 04:39:50;;;;;;;29.92;16.88;;;;;;;;;;5075494;28;20195;-63
2021/03/09 04:42:17;;;;;;;31.08;16.30;;;;;;;;;;5057613;28;20216;-63
2021/03/09 04:44:44;;;;;;;27.30;15.60;;;;;;;;;;5057955;28;20204;-63
2021/03/09 04:47:13;;;;;;;30.52;17.65;;;;;;;;;;5076190;28;20558;-63
2021/03/09 04:49:40;;;;;;;24.63;14.52;;;;;;;;;;5075131;28;20222;-63
2021/03/09 04:52:06;;;;;;;33.22;16.45;;;;;;;;;;5075294;28;20195;-63
2021/03/09 04:54:34;;;;;;;34.70;17.52;;;;;;;;;;5075283;28;20192;-63
2021/03/09 04:57:01;;;;;;;38.97;19.50;;;;;;;;;;5057398;28;20203;-63
2021/03/09 04:59:29;;;;;;;28.05;18.15;;;;;;;;;;5075086;28;20192;-63
2021/03/09 05:01:59;;;;;;;29.80;17.77;;;;;;;;;;5075011;28;20188;-62
2021/03/09 05:04:25;;;;;;;34.05;19.73;;;;;;;;;;5074804;28;20588;-63
2021/03/09 05:06:54;;;;;;;36.90;20.77;;;;;;;;;;5057633;28;20188;-63
2021/03/09 05:09:21;;;;;;;36.10;21.83;;;;;;;;;;5074911;28;20685;-63
2021/03/09 05:11:47;;;;;;;51.88;22.00;;;;;;;;;;5074249;28;20215;-63
2021/03/09 05:14:19;;;;;;;34.63;20.10;;;;;;;;;;5057904;28;20530;-63
2021/03/09 05:16:45;;;;;;;26.75;17.27;;;;;;;;;;5074516;28;20227;-63
2021/03/09 05:19:15;;;;;;;29.88;18.00;;;;;;;;;;5074646;28;20593;-63
2021/03/09 05:21:42;;;;;;;37.78;19.60;;;;;;;;;;5057152;28;20264;-63
2021/03/09 05:24:09;;;;;;;29.80;18.98;;;;;;;;;;5074646;28;20191;-63
2021/03/09 05:26:37;;;;;;;31.30;18.55;;;;;;;;;;5074464;28;20188;-62
2021/03/09 05:29:04;;;;;;;30.75;18.50;;;;;;;;;;5056918;28;20196;-63
2021/03/09 05:31:31;;;;;;;31.17;17.88;;;;;;;;;;5074283;28;20239;-63
2021/03/09 05:33:58;;;;;;;33.42;18.15;;;;;;;;;;5074353;28;20287;-63
2021/03/09 05:36:25;;;;;;;38.95;19.40;;;;;;;;;;5074309;28;20180;-63
2021/03/09 05:38:54;;;;;;;35.35;20.10;;;;;;;;;;5057018;28;20212;-63
2021/03/09 05:41:21;;;;;;;34.35;19.02;;;;;;;;;;5074365;28;20595;-63
2021/03/09 05:43:52;;;;;;;29.67;17.48;;;;;;;;;;5074484;28;20199;-63
2021/03/09 05:46:18;;;;;;;27.63;17.45;;;;;;;;;;5074159;28;20192;-63
2021/03/09 05:48:45;;;;;;;33.28;19.00;;;;;;;;;;5074064;28;20192;-63
2021/03/09 05:51:12;;;;;;;31.08;17.85;;;;;;;;;;5073534;28;20227;-63
2021/03/09 05:53:38;;;;;;;30.98;18.48;;;;;;;;;;5074141;28;20203;-63
2021/03/09 05:56:07;;;;;;;29.48;17.42;;;;;;;;;;5074308;28;20609;-63
2021/03/09 05:58:34;;;;;;;35.10;19.70;;;;;;;;;;5056149;28;20215;-62
2021/03/09 06:01:00;;;;;;;33.22;21.15;;;;;;;;;;5073872;28;20585;-63
2021/03/09 06:03:27;;;;;;;31.17;18.45;;;;;;;;;;5073893;28;20196;-63
2021/03/09 06:05:57;;;;;;;33.38;20.50;;;;;;;;;;5073990;28;20356;-63
2021/03/09 06:08:29;;;;;;;39.95;21.50;;;;;;;;;;5056811;28;20563;-63
2021/03/09 06:11:15;;;;;;;34.72;19.95;;;;;;;;;;5055982;28;20587;-63
2021/03/09 06:13:47;;;;;;;30.52;19.60;;;;;;;;;;5073717;28;20188;-63
2021/03/09 06:16:15;;;;;;;38.83;20.52;;;;;;;;;;5073676;28;20227;-62
2021/03/09 06:18:53;;;;;;;41.40;20.67;;;;;;;;;;5073905;28;20195;-63
2021/03/09 06:21:23;;;;;;;35.08;19.45;;;;;;;;;;5073921;28;20173;-62
2021/03/09 06:23:51;;;;;;;38.17;20.40;;;;;;;;;;5072783;28;20191;-63
2021/03/09 06:26:36;;;;;;;36.80;19.90;;;;;;;;;;5073447;28;20283;-63
2021/03/09 06:29:11;;;;;;;31.52;18.33;;;;;;;;;;5073406;28;20562;-63
2021/03/09 06:31:41;;;;;;;42.47;22.23;;;;;;;;;;5073619;28;20226;-63
2021/03/09 06:34:29;;;;;;;34.58;21.98;;;;;;;;;;5073600;28;20226;-63
2021/03/09 06:37:15;;;;;;;32.97;19.73;;;;;;;;;;5073621;28;20211;-63
2021/03/09 06:39:44;;;;;;;34.53;19.42;;;;;;;;;;5073607;28;20184;-63
2021/03/09 06:42:11;;;;;;;35.08;20.55;;;;;;;;;;5073447;28;20670;-63
2021/03/09 06:44:41;;;;;;;37.85;21.60;;;;;;;;;;5055537;28;20203;-63
2021/03/09 06:47:12;;;;;;;34.13;20.10;;;;;;;;;;5073820;28;20202;-64
2021/03/09 06:49:55;;;;;;;37.88;21.23;;;;;;;;;;5073413;28;20188;-63
2021/03/09 06:52:21;;;;;;;39.20;21.13;;;;;;;;;;5073929;28;20671;-63
2021/03/09 06:54:55;;;;;;;39.80;20.42;;;;;;;;;;5073654;28;20200;-63
2021/03/09 06:57:22;;;;;;;40.90;19.95;;;;;;;;;;5072929;28;20200;-63
2021/03/09 06:59:51;;;;;;;36.95;22.40;;;;;;;;;;5073431;28;20199;-64
2021/03/09 07:02:27;;;;;;;38.45;20.42;;;;;;;;;;5073699;28;20653;-64
2021/03/09 07:04:55;;;;;;;35.00;20.50;;;;;;;;;;5073607;28;20188;-64
2021/03/09 07:07:30;;;;;;;32.30;18.30;;;;;;;;;;5055868;28;20192;-64
2021/03/09 07:10:12;;;;;;;35.78;18.98;;;;;;;;;;5073229;28;20303;-64
2021/03/09 07:12:46;;;;;;;32.20;20.50;;;;;;;;;;5073242;28;20188;-64
2021/03/09 07:15:15;;;;;;;34.22;19.80;;;;;;;;;;5073690;28;20200;-63
2021/03/09 07:17:46;;;;;;;35.25;19.67;;;;;;;;;;5073049;28;20562;-64
2021/03/09 07:20:15;;;;;;;36.80;19.92;;;;;;;;;;5073103;28;20204;-64
2021/03/09 07:22:48;;;;;;;35.08;20.33;;;;;;;;;;5073184;28;20650;-63
2021/03/09 07:25:18;;;;;;;43.40;22.90;;;;;;;;;;5073247;28;20188;-64
2021/03/09 07:27:58;;;;;;;42.65;20.40;;;;;;;;;;5055325;28;20302;-63
2021/03/09 07:30:29;;;;;;;34.97;18.63;;;;;;;;;;5072733;28;20220;-63
2021/03/09 07:32:57;;;;;;;33.83;19.02;;;;;;;;;;5073071;28;20188;-64
2021/03/09 07:35:24;;;;;;;34.88;20.70;;;;;;;;;;5075620;28;20266;-61
2021/03/09 07:37:55;;;;;;;38.38;20.30;;;;;;;;;;5076765;28;20638;-65
2021/03/09 07:40:29;;;;;;;32.00;20.67;;;;;;;;;;5058616;28;20214;-63
2021/03/09 07:42:57;;;;;;;32.92;20.45;;;;;;;;;;5076379;28;20664;-65
2021/03/09 07:45:25;;;;;;;36.53;21.08;;;;;;;;;;5076532;28;20199;-65
2021/03/09 07:47:55;;;;;;;37.15;21.15;;;;;;;;;;5058577;28;20221;-65
2021/03/09 07:50:22;;;;;;;37.95;20.48;;;;;;;;;;5076689;28;20227;-65
2021/03/09 07:53:06;;;;;;;40.33;22.10;;;;;;;;;;5076888;28;20200;-65
2021/03/09 07:55:37;;;;;;;38.78;20.85;;;;;;;;;;5058825;28;20196;-65
2021/03/09 07:58:18;;;;;;;36.35;21.50;;;;;;;;;;5076328;28;20194;-64
2021/03/09 08:00:53;;;;;;;30.38;19.25;;;;;;;;;;5076184;28;20176;-65
2021/03/09 08:03:20;;;;;;;35.80;20.15;;;;;;;;;;5076124;28;20195;-65
2021/03/09 08:05:51;;;;;;;32.50;20.75;;;;;;;;;;5076750;28;20172;-65
2021/03/09 08:08:36;;;;;;;32.55;19.95;;;;;;;;;;5076086;28;20193;-64
2021/03/09 08:11:06;;;;;;;35.50;21.13;;;;;;;;;;5076048;28;20216;-65
2021/03/09 08:13:33;;;;;;;38.92;21.40;;;;;;;;;;5075658;28;20556;-65
2021/03/09 08:16:18;;;;;;;38.97;20.50;;;;;;;;;;5075905;28;20228;-64
2021/03/09 08:18:55;;;;;;;32.85;19.55;;;;;;;;;;5058635;28;20207;-63
2021/03/09 08:21:51;;;;;;;33.38;20.15;;;;;;;;;;5067658;28;20213;-65
2021/03/09 08:24:40;;;;;;;31.17;20.48;;;;;;;;;;5069944;28;20620;-63
2021/03/09 08:27:25;;;;;;;28.77;19.02;;;;;;;;;;5074532;28;20550;-64
2021/03/09 08:29:52;;;;;;;30.08;18.77;;;;;;;;;;5075075;28;20572;-61
2021/03/09 08:32:24;;;;;;;25.38;17.85;;;;;;;;;;5075122;28;20196;-65
2021/03/09 08:34:52;;;;;;;28.00;19.73;;;;;;;;;;5072837;28;20195;-64
2021/03/09 08:37:32;;;;;;;29.98;17.90;;;;;;;;;;5072356;28;20250;-64
2021/03/09 08:40:06;;;;;;;26.15;18.55;;;;;;;;;;5054840;28;20222;-64
2021/03/09 08:42:54;;;;;;;27.65;17.20;;;;;;;;;;5079035;28;20684;-64
2021/03/09 08:45:37;;;;;;;35.15;19.98;;;;;;;;;;5074237;28;20192;-64
2021/03/09 08:48:04;;;;;;;26.15;16.98;;;;;;;;;;5075725;28;20184;-65
2021/03/09 08:50:46;;;;;;;28.45;19.02;;;;;;;;;;5075410;28;20231;-66
2021/03/09 08:53:26;;;;;;;28.73;16.17;;;;;;;;;;5075462;28;20273;-64
2021/03/09 08:56:00;;;;;;;23.67;16.83;;;;;;;;;;5075229;28;20202;-64
2021/03/09 08:58:27;;;;;;;31.92;18.58;;;;;;;;;;5057329;28;20199;-63
2021/03/09 09:00:56;;;;;;;25.63;16.75;;;;;;;;;;5075068;28;20203;-63
2021/03/09 09:03:32;;;;;;;29.08;19.00;;;;;;;;;;5074715;28;20195;-63
2021/03/09 09:05:59;;;;;;;28.23;16.65;;;;;;;;;;5074909;28;20195;-64
2021/03/09 09:08:26;;;;;;;22.70;15.52;;;;;;;;;;5075107;28;20245;-65
2021/03/09 09:10:53;;;;;;;24.63;16.40;;;;;;;;;;5074930;28;20229;-64
2021/03/09 09:13:30;;;;;;;30.85;18.20;;;;;;;;;;5074845;28;20188;-64
2021/03/09 09:15:56;;;;;;;25.85;16.50;;;;;;;;;;5056946;28;20191;-65
2021/03/09 09:18:23;;;;;;;24.73;17.73;;;;;;;;;;5074589;28;20555;-64
2021/03/09 09:20:51;;;;;;;27.80;17.42;;;;;;;;;;5074790;28;20192;-64
2021/03/09 09:23:20;;;;;;;26.10;18.17;;;;;;;;;;5074242;28;20200;-63
2021/03/09 09:25:53;;;;;;;28.73;18.08;;;;;;;;;;5074955;28;20210;-64
2021/03/09 09:28:33;;;;;;;21.40;15.32;;;;;;;;;;5074376;28;20184;-65
2021/03/09 09:31:09;;;;;;;34.00;17.73;;;;;;;;;;5056540;28;20239;-64
2021/03/09 09:33:35;;;;;;;26.73;17.83;;;;;;;;;;5074828;28;20234;-64
2021/03/09 09:36:02;;;;;;;27.45;16.35;;;;;;;;;;5056803;28;20188;-64
2021/03/09 09:38:29;;;;;;;24.35;16.88;;;;;;;;;;5074241;28;20194;-66
2021/03/09 09:41:01;;;;;;;24.55;17.08;;;;;;;;;;5056655;28;20211;-64
2021/03/09 09:43:33;;;;;;;21.40;15.50;;;;;;;;;;5074471;28;20200;-65
2021/03/09 09:46:05;;;;;;;25.25;15.95;;;;;;;;;;5039437;28;20722;-65
2021/03/09 09:48:39;;;;;;;24.73;16.30;;;;;;;;;;5055530;28;20229;-65
2021/03/09 09:51:12;;;;;;;21.77;15.23;;;;;;;;;;5055602;28;20215;-63
2021/03/09 09:53:40;;;;;;;24.92;16.60;;;;;;;;;;5073847;28;20187;-63
2021/03/09 09:56:08;;;;;;;20.92;15.50;;;;;;;;;;5073590;28;20219;-64
2021/03/09 09:58:40;;;;;;;23.08;14.45;;;;;;;;;;5074357;28;20194;-63
2021/03/09 10:01:07;;;;;;;27.88;18.38;;;;;;;;;;5073918;28;20239;-64
2021/03/09 10:03:33;;;;;;;19.38;15.45;;;;;;;;;;5074228;28;20681;-64
2021/03/09 10:06:16;;;;;;;23.23;15.70;;;;;;;;;;5074340;28;20188;-64
2021/03/09 10:08:44;;;;;;;21.27;15.40;;;;;;;;;;5074006;28;20522;-64
2021/03/09 10:11:13;;;;;;;21.02;14.90;;;;;;;;;;5074073;28;20211;-63
2021/03/09 10:13:41;;;;;;;23.48;16.77;;;;;;;;;;5074163;28;20223;-65
2021/03/09 10:16:08;;;;;;;23.88;15.13;;;;;;;;;;5073597;28;20231;-65
2021/03/09 10:18:36;;;;;;;25.83;17.55;;;;;;;;;;5073657;28;20647;-65
2021/03/09 10:21:11;;;;;;;24.40;15.60;;;;;;;;;;5073660;28;20188;-65
2021/03/09 10:23:51;;;;;;;19.92;15.13;;;;;;;;;;5073691;28;20193;-64
2021/03/09 10:26:32;;;;;;;27.80;16.35;;;;;;;;;;5055137;28;20329;-64
2021/03/09 10:29:07;;;;;;;21.25;15.27;;;;;;;;;;5073943;28;20172;-65
2021/03/09 10:31:39;;;;;;;26.67;16.70;;;;;;;;;;5073506;28;20215;-62
2021/03/09 10:34:06;;;;;;;17.90;13.40;;;;;;;;;;5073441;28;20188;-63
2021/03/09 10:36:48;;;;;;;19.33;14.07;;;;;;;;;;5055287;28;20591;-63
2021/03/09 10:39:15;;;;;;;25.58;14.60;;;;;;;;;;5055405;28;20199;-63
2021/03/09 10:41:45;;;;;;;17.67;13.80;;;;;;;;;;5073149;28;20222;-63
2021/03/09 10:44:30;;;;;;;22.80;15.45;;;;;;;;;;5073279;28;20188;-64
2021/03/09 10:46:57;;;;;;;16.58;13.80;;;;;;;;;;5073471;28;20180;-64
2021/03/09 10:49:24;;;;;;;22.15;16.25;;;;;;;;;;5073461;28;20206;-64
2021/03/09 10:52:17;;;;;;;22.70;16.33;;;;;;;;;;5073441;28;20219;-64
2021/03/09 10:54:45;;;;;;;20.83;14.50;;;;;;;;;;5070960;28;20571;-64
2021/03/09 10:57:12;;;;;;;19.92;14.60;;;;;;;;;;5055010;28;20204;-64
2021/03/09 10:59:39;;;;;;;19.33;14.40;;;;;;;;;;5073018;28;20331;-64
2021/03/09 11:02:07;;;;;;;18.98;14.60;;;;;;;;;;5073202;28;20533;-64
2021/03/09 11:04:34;;;;;;;18.42;14.70;;;;;;;;;;5073676;28;20211;-64
2021/03/09 11:07:05;;;;;;;19.20;13.95;;;;;;;;;;5074495;28;20188;-64
2021/03/09 11:09:32;;;;;;;22.50;15.00;;;;;;;;;;5075859;28;20191;-63
2021/03/09 11:12:00;;;;;;;18.05;13.50;;;;;;;;;;5077482;28;20671;-64
2021/03/09 11:14:28;;;;;;;20.10;13.50;;;;;;;;;;5077318;28;20216;-64
2021/03/09 11:16:55;;;;;;;23.52;13.23;;;;;;;;;;5077675;28;20228;-64
2021/03/09 11:19:23;;;;;;;17.90;14.48;;;;;;;;;;5076736;28;20207;-64
2021/03/09 11:21:49;;;;;;;15.45;13.65;;;;;;;;;;5076850;28;20651;-64
2021/03/09 11:24:16;;;;;;;25.13;14.63;;;;;;;;;;5076627;28;20198;-65
2021/03/09 11:26:43;;;;;;;14.68;11.50;;;;;;;;;;5076535;28;20203;-65
2021/03/09 11:29:09;;;;;;;15.15;12.30;;;;;;;;;;5076737;28;20207;-65
2021/03/09 11:31:36;;;;;;;16.85;13.45;;;;;;;;;;5076452;28;20220;-64
2021/03/09 11:34:02;;;;;;;15.20;12.35;;;;;;;;;;5059063;28;20188;-64
2021/03/09 11:36:29;;;;;;;15.55;13.05;;;;;;;;;;5058652;28;20207;-65
2021/03/09 11:38:56;;;;;;;17.30;12.55;;;;;;;;;;5076665;28;20184;-65
2021/03/09 11:41:22;;;;;;;14.52;11.80;;;;;;;;;;5076631;28;20192;-65
2021/03/09 11:43:49;;;;;;;16.25;12.10;;;;;;;;;;5076696;28;20255;-65
2021/03/09 11:46:16;;;;;;;13.48;12.00;;;;;;;;;;5076455;28;20188;-65
2021/03/09 11:48:43;;;;;;;12.15;9.93;;;;;;;;;;5076419;28;20233;-65
2021/03/09 11:51:14;;;;;;;14.95;10.55;;;;;;;;;;5042037;28;20274;-63
2021/03/09 11:53:41;;;;;;;13.98;10.70;;;;;;;;;;5075990;28;20268;-65
2021/03/09 11:56:08;;;;;;;15.25;11.90;;;;;;;;;;5076358;28;20283;-65
2021/03/09 11:58:36;;;;;;;12.40;11.10;;;;;;;;;;5076196;28;20192;-65
2021/03/09 12:01:03;;;;;;;10.77;9.68;;;;;;;;;;5076070;28;20192;-65
2021/03/09 12:03:32;;;;;;;10.90;8.25;;;;;;;;;;5076381;28;20211;-66
2021/03/09 12:05:59;;;;;;;9.40;7.53;;;;;;;;;;5076403;28;20188;-65
2021/03/09 12:08:25;;;;;;;8.30;7.47;;;;;;;;;;5076359;28;20188;-65
2021/03/09 12:10:52;;;;;;;10.47;8.30;;;;;;;;;;5057810;28;21009;-65
2021/03/09 12:13:23;;;;;;;8.87;7.90;;;;;;;;;;5076101;28;20546;-65
2021/03/09 12:15:49;;;;;;;7.43;5.63;;;;;;;;;;5076169;28;20684;-66
2021/03/09 12:18:17;;;;;;;5.57;4.60;;;;;;;;;;5058067;28;20621;-65
2021/03/09 12:20:43;;;;;;;6.13;5.43;;;;;;;;;;5074413;28;20629;-66
2021/03/09 12:23:12;;;;;;;7.23;6.30;;;;;;;;;;5075359;28;20985;-65
2021/03/09 12:25:42;;;;;;;7.93;6.90;;;;;;;;;;5075825;28;20592;-65
2021/03/09 12:28:09;;;;;;;7.60;6.88;;;;;;;;;;5075730;28;20606;-66
2021/03/09 12:30:35;;;;;;;6.47;5.85;;;;;;;;;;5075511;28;20545;-65
2021/03/09 12:33:06;;;;;;;7.63;6.80;;;;;;;;;;5058703;28;20216;-66
2021/03/09 12:35:32;;;;;;;12.30;7.33;;;;;;;;;;5076139;28;21156;-65
2021/03/09 12:37:58;;;;;;;8.23;6.87;;;;;;;;;;5076463;28;20667;-65
2021/03/09 12:40:25;;;;;;;7.50;6.47;;;;;;;;;;5075796;28;20610;-65
2021/03/09 12:42:52;;;;;;;6.80;6.23;;;;;;;;;;5075313;28;20716;-65
2021/03/09 12:45:19;;;;;;;7.23;6.53;;;;;;;;;;5075427;28;20610;-65
2021/03/09 12:47:49;;;;;;;6.63;5.93;;;;;;;;;;5057544;28;20626;-66
2021/03/09 12:50:16;;;;;;;7.43;6.73;;;;;;;;;;5075080;28;20640;-66
2021/03/09 12:52:43;;;;;;;12.10;6.80;;;;;;;;;;5057699;28;20618;-66
2021/03/09 12:55:10;;;;;;;10.63;7.30;;;;;;;;;;5075375;28;20594;-65
2021/03/09 12:57:36;;;;;;;7.80;7.00;;;;;;;;;;5074647;28;20663;-64
2021/03/09 13:00:06;;;;;;;8.50;7.70;;;;;;;;;;5074953;28;20610;-64
2021/03/09 13:02:33;;;;;;;8.83;8.00;;;;;;;;;;5074511;28;20664;-65
2021/03/09 13:05:01;;;;;;;7.97;6.93;;;;;;;;;;5074459;28;20616;-66
2021/03/09 13:07:28;;;;;;;9.33;6.40;;;;;;;;;;5082388;28;20628;-65
2021/03/09 13:10:01;;;;;;;9.27;8.37;;;;;;;;;;5094454;28;20593;-65
2021/03/09 13:12:28;;;;;;;7.40;6.70;;;;;;;;;;5076703;28;20716;-65
2021/03/09 13:14:54;;;;;;;7.00;6.30;;;;;;;;;;5085199;28;21181;-65
2021/03/09 13:17:23;;;;;;;7.87;7.03;;;;;;;;;;5064353;28;21015;-65
2021/03/09 13:19:50;;;;;;;10.43;8.83;;;;;;;;;;5076422;28;21114;-65
2021/03/09 13:22:17;;;;;;;10.57;8.90;;;;;;;;;;5090007;28;20658;-66
2021/03/09 13:24:47;;;;;;;6.83;5.23;;;;;;;;;;5074292;28;20712;-65
2021/03/09 13:27:14;;;;;;;10.73;7.10;;;;;;;;;;5073824;28;20672;-65
2021/03/09 13:29:45;;;;;;;6.47;5.67;;;;;;;;;;5074193;28;21026;-65
2021/03/09 13:32:15;;;;;;;7.53;6.77;;;;;;;;;;5055677;28;20662;-65
2021/03/09 13:34:44;;;;;;;7.10;6.40;;;;;;;;;;5074044;28;20666;-65
2021/03/09 13:37:11;;;;;;;6.73;6.13;;;;;;;;;;5073872;28;21147;-65
2021/03/09 13:39:38;;;;;;;7.90;6.87;;;;;;;;;;5073497;28;20645;-65
2021/03/09 13:42:05;;;;;;;9.30;7.40;;;;;;;;;;5073333;28;20675;-65
2021/03/09 13:44:32;;;;;;;7.90;6.87;;;;;;;;;;5073189;28;21193;-64
2021/03/09 13:46:58;;;;;;;7.40;6.40;;;;;;;;;;5073569;28;20636;-66
2021/03/09 13:49:29;;;;;;;11.57;7.73;;;;;;;;;;5073315;28;21137;-65
2021/03/09 13:51:58;;;;;;;6.60;6.00;;;;;;;;;;5073421;28;21069;-64
2021/03/09 13:54:27;;;;;;;7.73;6.13;;;;;;;;;;5073532;28;20715;-65
2021/03/09 13:56:57;;;;;;;6.70;6.00;;;;;;;;;;5056178;28;21015;-65
2021/03/09 13:59:23;;;;;;;7.03;6.43;;;;;;;;;;5073641;28;20593;-65
2021/03/09 14:01:51;;;;;;;6.60;6.00;;;;;;;;;;5073329;28;20769;-65
2021/03/09 14:04:17;;;;;;;7.60;5.93;;;;;;;;;;5042866;28;20612;-65
2021/03/09 14:06:44;;;;;;;7.82;6.63;;;;;;;;;;5072308;28;20609;-65
2021/03/09 14:09:12;;;;;;;9.50;7.40;;;;;;;;;;5073090;28;20202;-65
2021/03/09 14:11:46;;;;;;;8.57;6.40;;;;;;;;;;5073234;28;20648;-65
2021/03/09 14:14:13;;;;;;;7.87;6.90;;;;;;;;;;5073113;28;20563;-65
2021/03/09 14:16:42;;;;;;;6.73;6.03;;;;;;;;;;5072931;28;20662;-65
2021/03/09 14:19:11;;;;;;;7.63;6.93;;;;;;;;;;5073093;28;20977;-65
2021/03/09 14:21:40;;;;;;;10.73;7.47;;;;;;;;;;5072784;28;20719;-65
2021/03/09 14:24:10;;;;;;;11.77;7.83;;;;;;;;;;5073073;28;21177;-66
2021/03/09 14:26:37;;;;;;;6.70;6.10;;;;;;;;;;5072812;28;20714;-65
2021/03/09 14:29:07;;;;;;;8.53;7.47;;;;;;;;;;5073149;28;20603;-66
2021/03/09 14:31:33;;;;;;;6.87;6.17;;;;;;;;;;5073331;28;20657;-66
2021/03/09 14:34:00;;;;;;;7.97;7.17;;;;;;;;;;5073086;28;20713;-64
2021/03/09 14:36:27;;;;;;;12.73;7.07;;;;;;;;;;5073288;28;20624;-65
2021/03/09 14:38:53;;;;;;;5.67;5.17;;;;;;;;;;5073052;28;20624;-65
2021/03/09 14:41:27;;;;;;;7.00;6.40;;;;;;;;;;5072973;28;20622;-65